Time;durP1;ratioP1;P1;durP2;ratioP2;P2;SDS_P1;SDS_P2;PMS_P1;PMS_P2;Temp;Humidity;BMP_temperature;BMP_pressure;BME280_temperature;BME280_humidity;BME280_pressure;Samples;Min_cycle;Max_cycle;Signal;HPM_P1;HPM_P2
2022/11/03 00:00:00;;;;;;;10.02;3.30;;;8.60;99.90;;;;;;5027608;28;20045;-72
2022/11/03 00:02:25;;;;;;;12.05;2.58;;;8.50;99.90;;;;;;5011997;28;20506;-72
2022/11/03 00:04:51;;;;;;;7.53;2.70;;;8.50;99.90;;;;;;5006007;28;20120;-73
2022/11/03 00:07:20;;;;;;;14.35;2.67;;;8.50;99.90;;;;;;5011916;28;20042;-73
2022/11/03 00:09:46;;;;;;;9.50;2.00;;;8.40;99.90;;;;;;5011152;28;20057;-73
2022/11/03 00:12:12;;;;;;;6.07;2.20;;;8.50;99.90;;;;;;4981010;28;20076;-73
2022/11/03 00:14:38;;;;;;;11.02;2.35;;;8.40;99.90;;;;;;5011054;28;20041;-73
2022/11/03 00:17:03;;;;;;;6.65;2.67;;;8.30;99.90;;;;;;5010386;28;20056;-72
2022/11/03 00:19:32;;;;;;;8.02;2.15;;;8.30;99.90;;;;;;4991447;28;20046;-73
2022/11/03 00:21:58;;;;;;;7.82;2.47;;;8.40;99.90;;;;;;5023828;28;20403;-72
2022/11/03 00:24:23;;;;;;;6.80;1.77;;;8.40;99.90;;;;;;5010587;28;20042;-72
2022/11/03 00:26:49;;;;;;;9.52;2.25;;;8.30;99.90;;;;;;5010463;28;20053;-73
2022/11/03 00:29:15;;;;;;;9.73;2.50;;;8.40;99.90;;;;;;5008698;28;20080;-73
2022/11/03 00:31:42;;;;;;;6.18;1.90;;;8.40;99.90;;;;;;5010664;28;20064;-73
2022/11/03 00:34:09;;;;;;;10.15;2.20;;;8.40;99.90;;;;;;5010763;28;20050;-72
2022/11/03 00:36:37;;;;;;;9.38;2.08;;;8.30;99.90;;;;;;5018786;28;20050;-72
2022/11/03 00:39:03;;;;;;;10.80;2.40;;;8.20;99.90;;;;;;5009194;28;20058;-72
2022/11/03 00:41:29;;;;;;;12.10;2.10;;;8.10;99.90;;;;;;4994403;28;20050;-72
2022/11/03 00:43:56;;;;;;;9.32;1.90;;;8.20;99.90;;;;;;5027551;28;20061;-72
2022/11/03 00:46:22;;;;;;;8.82;1.95;;;8.20;99.90;;;;;;5008739;28;20046;-72
2022/11/03 00:48:47;;;;;;;11.82;2.15;;;8.10;99.90;;;;;;5021038;28;20319;-72
2022/11/03 00:51:18;;;;;;;5.75;2.50;;;8.00;99.90;;;;;;5009116;28;20049;-72
2022/11/03 00:53:51;;;;;;;11.05;2.20;;;8.10;99.90;;;;;;4993969;28;20049;-72
2022/11/03 00:56:23;;;;;;;12.52;2.63;;;8.10;99.90;;;;;;4990863;28;20046;-72
2022/11/03 00:58:49;;;;;;;9.23;2.15;;;8.10;99.90;;;;;;4994177;28;20037;-73
2022/11/03 01:01:19;;;;;;;8.00;2.28;;;8.10;99.90;;;;;;4993932;28;20053;-72
2022/11/03 01:06:50;;;;;;;8.75;2.47;;;8.10;99.90;;;;;;5007339;28;20073;-73
2022/11/03 01:09:22;;;;;;;10.82;2.92;;;8.10;99.90;;;;;;5008647;28;20092;-73
2022/11/03 01:12:11;;;;;;;11.43;2.22;;;8.10;99.90;;;;;;5025903;28;20053;-73
2022/11/03 01:14:46;;;;;;;10.13;1.80;;;8.20;99.90;;;;;;4977255;28;20045;-72
2022/11/03 01:17:15;;;;;;;9.20;2.28;;;8.10;99.90;;;;;;5009895;28;20053;-73
2022/11/03 01:19:49;;;;;;;8.20;2.00;;;8.10;99.90;;;;;;5008897;28;20069;-72
2022/11/03 01:22:15;;;;;;;9.52;2.40;;;8.10;99.90;;;;;;5008902;28;20045;-72
2022/11/03 01:24:41;;;;;;;10.27;2.40;;;8.20;99.90;;;;;;4992897;28;20388;-72
2022/11/03 01:27:08;;;;;;;9.63;2.05;;;8.20;99.90;;;;;;5009016;28;20459;-73
2022/11/03 01:29:33;;;;;;;10.25;1.92;;;8.10;99.90;;;;;;4989724;28;20046;-73
2022/11/03 01:31:59;;;;;;;10.60;2.13;;;8.00;99.90;;;;;;5023067;28;20050;-72
2022/11/03 01:34:25;;;;;;;8.13;2.38;;;8.10;99.90;;;;;;5009171;28;20081;-73
2022/11/03 01:36:51;;;;;;;9.02;2.35;;;8.00;99.90;;;;;;5005457;28;20050;-72
2022/11/03 01:39:17;;;;;;;10.00;3.08;;;8.00;99.90;;;;;;5006261;28;20140;-72
2022/11/03 01:41:47;;;;;;;11.77;3.55;;;7.90;99.90;;;;;;5008883;28;20053;-72
2022/11/03 01:44:13;;;;;;;7.78;1.95;;;7.80;99.90;;;;;;5012593;28;20045;-72
2022/11/03 01:46:49;;;;;;;9.65;2.22;;;7.90;99.90;;;;;;4991902;28;20056;-72
2022/11/03 01:49:19;;;;;;;8.10;1.98;;;7.90;99.90;;;;;;5009740;28;20131;-72
2022/11/03 01:51:47;;;;;;;7.72;1.80;;;7.90;99.90;;;;;;5016150;28;20492;-72
2022/11/03 01:54:14;;;;;;;11.52;2.35;;;7.90;99.90;;;;;;5009037;28;20049;-72
2022/11/03 01:56:41;;;;;;;10.07;2.00;;;7.90;99.90;;;;;;4992162;28;20107;-73
2022/11/03 01:59:07;;;;;;;13.17;2.57;;;8.00;99.90;;;;;;4976216;28;20049;-73
2022/11/03 02:01:33;;;;;;;15.88;2.63;;;8.10;99.90;;;;;;5008647;28;20048;-73
2022/11/03 02:04:01;;;;;;;14.13;2.97;;;8.00;99.90;;;;;;5007773;28;20807;-73
2022/11/03 02:06:27;;;;;;;;;;;8.00;99.90;;;;;;4977183;28;20042;-73
2022/11/03 02:09:02;;;;;;;9.93;2.53;;;8.10;99.90;;;;;;4992729;28;20737;-72
2022/11/03 02:14:17;;;;;;;8.60;1.90;;;8.10;99.90;;;;;;4995077;28;20460;-73
2022/11/03 02:16:48;;;;;;;10.57;2.35;;;8.00;99.90;;;;;;5012543;28;20112;-72
2022/11/03 02:19:29;;;;;;;9.43;2.22;;;8.00;99.90;;;;;;5025418;28;20064;-73
2022/11/03 02:22:17;;;;;;;7.90;1.85;;;8.10;99.90;;;;;;5004691;28;20498;-73
2022/11/03 02:24:49;;;;;;;6.78;2.22;;;8.10;99.90;;;;;;5008587;28;20049;-72
2022/11/03 02:27:16;;;;;;;10.80;1.85;;;8.10;99.90;;;;;;4990950;28;20033;-72
2022/11/03 02:29:42;;;;;;;10.27;1.77;;;8.20;99.90;;;;;;4992663;28;20045;-73
2022/11/03 02:32:35;;;;;;;10.60;2.35;;;8.20;99.90;;;;;;5007301;28;20053;-73
2022/11/03 02:35:07;;;;;;;8.35;1.77;;;8.20;99.90;;;;;;5002306;28;20057;-72
2022/11/03 02:37:35;;;;;;;10.77;1.88;;;8.10;99.90;;;;;;5004637;28;20128;-72
2022/11/03 02:40:07;;;;;;;;;;;8.10;99.90;;;;;;5007947;28;20072;-72
2022/11/03 02:42:34;;;;;;;5.57;1.65;;;8.20;99.90;;;;;;4991094;28;19952;-72
2022/11/03 02:45:01;;;;;;;9.75;2.67;;;8.20;99.90;;;;;;5008063;28;20161;-73
2022/11/03 02:47:27;;;;;;;7.18;1.63;;;8.30;99.90;;;;;;5009830;28;20041;-72
2022/11/03 02:49:53;;;;;;;8.82;1.98;;;8.20;99.90;;;;;;4995783;28;20053;-72
2022/11/03 02:52:41;;;;;;;10.20;2.40;;;8.20;99.90;;;;;;5010881;28;20046;-72
2022/11/03 02:55:16;;;;;;;12.60;2.30;;;8.10;99.90;;;;;;5012062;28;20042;-72
2022/11/03 02:58:07;;;;;;;6.13;1.63;;;8.10;99.90;;;;;;5010955;28;20061;-72
2022/11/03 03:00:41;;;;;;;9.80;2.00;;;8.10;99.90;;;;;;4977418;28;20203;-71
2022/11/03 03:03:27;;;;;;;10.70;2.50;;;8.10;99.90;;;;;;4994730;28;20069;-71
2022/11/03 03:05:55;;;;;;;11.50;2.00;;;8.10;99.90;;;;;;5010791;28;20084;-72
2022/11/03 03:08:21;;;;;;;8.52;1.70;;;8.10;99.90;;;;;;5012570;28;20046;-73
2022/11/03 03:10:47;;;;;;;12.50;2.10;;;8.10;99.90;;;;;;5012637;28;20038;-73
2022/11/03 03:13:15;;;;;;;14.57;2.20;;;8.00;99.90;;;;;;5012174;28;20042;-73
2022/11/03 03:15:46;;;;;;;10.93;1.92;;;8.00;99.90;;;;;;5009163;28;20137;-72
2022/11/03 03:18:19;;;;;;;12.02;2.00;;;8.00;99.90;;;;;;5010746;28;20052;-71
2022/11/03 03:20:50;;;;;;;11.73;2.03;;;8.00;99.90;;;;;;4994808;28;20078;-73
2022/11/03 03:23:26;;;;;;;11.80;1.98;;;8.00;99.90;;;;;;5009032;28;20547;-72
2022/11/03 03:26:03;;;;;;;9.88;1.90;;;8.00;99.90;;;;;;4995926;28;20054;-73
2022/11/03 03:28:38;;;;;;;6.68;1.58;;;8.10;99.90;;;;;;5012607;28;20425;-72
2022/11/03 03:31:07;;;;;;;7.75;2.17;;;8.10;99.90;;;;;;5010206;28;20046;-72
2022/11/03 03:33:32;;;;;;;7.32;1.83;;;8.10;99.90;;;;;;4995459;28;20046;-72
2022/11/03 03:35:59;;;;;;;8.15;1.75;;;8.20;99.90;;;;;;5011743;28;20056;-73
2022/11/03 03:38:28;;;;;;;8.20;1.60;;;8.20;99.90;;;;;;4994340;28;20057;-73
2022/11/03 03:40:54;;;;;;;8.30;1.80;;;8.30;99.90;;;;;;5026406;28;20074;-73
2022/11/03 03:43:22;;;;;;;7.47;2.17;;;8.30;99.90;;;;;;5011450;28;20060;-72
2022/11/03 03:45:47;;;;;;;7.05;1.65;;;8.30;99.90;;;;;;5011460;28;20049;-72
2022/11/03 03:48:13;;;;;;;8.93;2.30;;;8.40;99.90;;;;;;5011129;28;20510;-72
2022/11/03 03:50:39;;;;;;;14.23;2.17;;;8.40;99.90;;;;;;4993025;28;20049;-72
2022/11/03 03:53:06;;;;;;;9.52;2.15;;;8.50;99.90;;;;;;4994567;28;20125;-72
2022/11/03 03:55:37;;;;;;;9.95;2.05;;;8.50;99.90;;;;;;5000328;28;20049;-72
2022/11/03 03:58:03;;;;;;;9.82;1.92;;;8.60;99.90;;;;;;5004895;28;20042;-72
2022/11/03 04:00:29;;;;;;;10.23;1.92;;;8.60;99.90;;;;;;5010801;28;20054;-73
2022/11/03 04:02:57;;;;;;;8.85;1.98;;;8.70;99.90;;;;;;5012043;28;20768;-73
2022/11/03 04:05:23;;;;;;;7.53;1.70;;;8.70;99.90;;;;;;4991260;28;20235;-73
2022/11/03 04:07:50;;;;;;;10.65;2.25;;;8.80;99.90;;;;;;4993858;28;20057;-72
2022/11/03 04:10:18;;;;;;;9.77;1.92;;;8.80;99.90;;;;;;4994628;28;20148;-72
2022/11/03 04:22:15;;;;;;;9.70;2.10;;;8.80;99.90;;;;;;5009022;28;20045;-73
2022/11/03 04:23:56;;;;;;;9.88;1.77;;;8.90;99.90;;;;;;5011949;28;20143;-72
2022/11/03 04:26:22;;;;;;;11.77;2.13;;;9.00;99.90;;;;;;5010196;28;20495;-73
2022/11/03 04:28:48;;;;;;;9.00;2.00;;;9.00;99.90;;;;;;5019643;28;20559;-73
2022/11/03 04:31:16;;;;;;;12.50;2.10;;;9.00;99.90;;;;;;5006801;28;20579;-73
2022/11/03 04:33:42;;;;;;;;;;;9.00;99.90;;;;;;5011547;28;20050;-73
2022/11/03 04:36:17;;;;;;;14.05;2.60;;;9.00;99.90;;;;;;5011216;28;19968;-73
2022/11/03 04:38:43;;;;;;;9.30;1.88;;;9.00;99.90;;;;;;5010170;28;20053;-73
2022/11/03 04:41:13;;;;;;;7.78;2.10;;;9.00;99.90;;;;;;5027151;28;20049;-73
2022/11/03 04:43:39;;;;;;;9.48;1.98;;;9.00;99.90;;;;;;4994853;28;20038;-72
2022/11/03 04:46:07;;;;;;;7.38;1.52;;;9.00;99.90;;;;;;4993958;28;20053;-73
2022/11/03 04:48:33;;;;;;;9.57;2.03;;;9.00;99.90;;;;;;5026491;28;20156;-73
2022/11/03 04:50:59;;;;;;;7.45;2.13;;;9.00;99.90;;;;;;4993058;28;20936;-72
2022/11/03 04:53:29;;;;;;;12.18;2.38;;;9.00;99.90;;;;;;4992082;28;20046;-73
2022/11/03 04:55:54;;;;;;;9.43;1.95;;;9.00;99.90;;;;;;5009524;28;20123;-74
2022/11/03 04:58:27;;;;;;;10.50;2.40;;;9.00;99.90;;;;;;4977711;28;20747;-72
2022/11/03 05:00:55;;;;;;;9.48;1.92;;;9.10;99.90;;;;;;5009368;28;20049;-73
2022/11/03 05:03:29;;;;;;;8.73;2.00;;;9.00;99.90;;;;;;5009649;28;20157;-73
2022/11/03 05:05:54;;;;;;;11.48;1.73;;;9.10;99.90;;;;;;5009713;28;20104;-72
2022/11/03 05:08:20;;;;;;;11.57;2.80;;;9.10;99.90;;;;;;5007798;28;20042;-73
2022/11/03 05:10:46;;;;;;;9.38;2.83;;;9.10;99.90;;;;;;5022091;28;20479;-73
2022/11/03 05:13:25;;;;;;;10.00;1.88;;;9.10;99.90;;;;;;5009703;28;20165;-72
2022/11/03 05:15:51;;;;;;;;;;;9.20;99.90;;;;;;4977686;28;20438;-72
2022/11/03 05:18:21;;;;;;;12.30;2.30;;;9.20;99.90;;;;;;4990213;28;20228;-73
2022/11/03 05:20:49;;;;;;;8.52;1.70;;;9.20;99.90;;;;;;5007094;28;20085;-72
2022/11/03 05:23:15;;;;;;;10.80;2.60;;;9.20;99.90;;;;;;5008372;28;20049;-74
2022/11/03 05:25:46;;;;;;;14.30;2.55;;;9.20;99.90;;;;;;4992530;28;20408;-70
2022/11/03 05:28:32;;;;;;;11.00;1.95;;;9.20;99.90;;;;;;5009052;28;20045;-70
2022/11/03 05:30:58;;;;;;;12.43;2.90;;;9.20;99.90;;;;;;5008514;28;20053;-70
2022/11/03 05:33:33;;;;;;;9.45;2.05;;;9.30;99.90;;;;;;5025790;28;20057;-70
2022/11/03 05:36:11;;;;;;;11.75;1.90;;;9.30;99.90;;;;;;5008651;28;20072;-71
2022/11/03 05:38:36;;;;;;;8.50;1.60;;;9.20;99.90;;;;;;5006108;28;20661;-70
2022/11/03 05:41:04;;;;;;;10.80;2.00;;;9.30;99.90;;;;;;4992630;28;20133;-70
2022/11/03 05:43:30;;;;;;;7.88;1.83;;;9.30;99.90;;;;;;4993539;28;20076;-73
2022/11/03 05:45:57;;;;;;;12.88;2.42;;;9.30;99.90;;;;;;4984967;28;20437;-73
2022/11/03 05:48:33;;;;;;;12.27;2.50;;;9.30;99.90;;;;;;4976941;28;20050;-73
2022/11/03 05:51:00;;;;;;;10.77;2.03;;;9.30;99.90;;;;;;5009090;28;20037;-73
2022/11/03 05:53:28;;;;;;;11.32;2.35;;;9.30;99.90;;;;;;5008195;28;20045;-74
2022/11/03 05:55:55;;;;;;;10.50;2.30;;;9.30;99.90;;;;;;5009733;28;20050;-73
2022/11/03 05:58:40;;;;;;;11.68;1.98;;;9.40;99.90;;;;;;5023634;28;20053;-73
2022/11/03 06:01:30;;;;;;;12.23;2.75;;;9.40;99.90;;;;;;4992336;28;20061;-74
2022/11/03 06:04:15;;;;;;;8.57;2.00;;;9.40;99.90;;;;;;5010042;28;20084;-73
2022/11/03 06:06:41;;;;;;;12.75;1.75;;;9.30;99.90;;;;;;5004406;28;20124;-73
2022/11/03 06:09:16;;;;;;;11.55;2.38;;;9.20;99.90;;;;;;4992832;28;20156;-73
2022/11/03 06:11:42;;;;;;;9.43;2.60;;;9.30;99.90;;;;;;5007166;28;20533;-73
2022/11/03 06:14:19;;;;;;;11.85;2.00;;;9.10;99.90;;;;;;5039029;28;20061;-73
2022/11/03 06:17:31;;;;;;;9.75;2.10;;;9.10;99.90;;;;;;4992327;28;20125;-75
2022/11/03 06:20:01;;;;;;;8.90;2.13;;;9.00;99.90;;;;;;5038974;28;20060;-74
2022/11/03 06:22:30;;;;;;;18.33;2.30;;;9.00;99.90;;;;;;5018613;28;20050;-74
2022/11/03 06:25:09;;;;;;;14.98;2.50;;;9.10;99.90;;;;;;5005693;28;20450;-73
2022/11/03 06:27:35;;;;;;;14.05;2.70;;;9.10;99.90;;;;;;5023388;28;20182;-73
2022/11/03 06:30:11;;;;;;;17.55;3.17;;;9.10;99.90;;;;;;4992433;28;20109;-74
2022/11/03 06:32:37;;;;;;;11.98;3.40;;;9.20;99.90;;;;;;5008481;28;20475;-74
2022/11/03 06:35:05;;;;;;;6.68;1.75;;;9.20;99.90;;;;;;5008401;28;20049;-74
2022/11/03 06:37:31;;;;;;;8.03;2.00;;;9.30;99.90;;;;;;4974648;28;20062;-74
2022/11/03 06:39:59;;;;;;;7.85;1.73;;;9.30;99.90;;;;;;4975651;28;20288;-74
2022/11/03 06:42:25;;;;;;;7.38;1.92;;;9.30;99.90;;;;;;4971841;28;20052;-72
2022/11/03 06:44:50;;;;;;;14.52;2.50;;;9.30;99.90;;;;;;5024229;28;20057;-73
2022/11/03 06:47:24;;;;;;;10.30;2.28;;;9.30;99.90;;;;;;5007794;28;20105;-73
2022/11/03 06:49:53;;;;;;;13.18;2.30;;;9.30;99.90;;;;;;5005149;28;20056;-73
2022/11/03 06:52:32;;;;;;;13.13;1.83;;;9.30;99.90;;;;;;5009932;28;20128;-72
2022/11/03 06:55:08;;;;;;;5.63;1.77;;;9.30;99.90;;;;;;4992405;28;20080;-73
2022/11/03 06:57:36;;;;;;;8.70;1.92;;;9.30;99.90;;;;;;5008405;28;20455;-74
2022/11/03 07:00:20;;;;;;;8.98;2.50;;;9.30;99.90;;;;;;5006828;28;20049;-73
2022/11/03 07:03:02;;;;;;;11.05;2.58;;;9.40;99.90;;;;;;4988978;28;20046;-72
2022/11/03 07:05:28;;;;;;;8.88;2.42;;;9.40;99.90;;;;;;5003416;28;20633;-72
2022/11/03 07:07:58;;;;;;;8.00;1.88;;;9.40;99.90;;;;;;4991873;28;20493;-72
2022/11/03 07:10:26;;;;;;;8.85;2.22;;;9.60;99.90;;;;;;5012253;28;20064;-72
2022/11/03 07:12:52;;;;;;;9.75;2.30;;;9.50;99.90;;;;;;5006934;28;20054;-73
2022/11/03 07:15:32;;;;;;;10.63;2.20;;;9.50;99.90;;;;;;4974571;28;20049;-73
2022/11/03 07:18:00;;;;;;;11.35;2.30;;;9.50;99.90;;;;;;5024020;28;20050;-72
2022/11/03 07:20:27;;;;;;;7.70;1.58;;;9.50;99.90;;;;;;5004730;28;20065;-75
2022/11/03 07:22:54;;;;;;;11.65;2.70;;;9.60;99.90;;;;;;5003510;28;20392;-74
2022/11/03 07:25:20;;;;;;;11.65;2.90;;;9.60;99.90;;;;;;5040414;28;20045;-74
2022/11/03 07:27:50;;;;;;;8.13;2.15;;;9.70;99.90;;;;;;5024326;28;20058;-73
2022/11/03 07:30:36;;;;;;;11.00;2.28;;;9.70;99.90;;;;;;5006221;28;20049;-71
2022/11/03 07:33:26;;;;;;;11.52;2.20;;;9.70;99.90;;;;;;5005483;28;20046;-73
2022/11/03 07:35:52;;;;;;;9.50;2.15;;;9.80;99.90;;;;;;5011346;28;20045;-73
2022/11/03 07:38:25;;;;;;;11.98;2.72;;;9.80;99.90;;;;;;4995026;28;20061;-73
2022/11/03 07:40:53;;;;;;;7.30;1.77;;;9.80;99.90;;;;;;4977803;28;20054;-71
2022/11/03 07:43:28;;;;;;;8.88;2.33;;;9.90;99.90;;;;;;4994953;28;20055;-73
2022/11/03 07:45:55;;;;;;;10.15;2.30;;;9.90;99.90;;;;;;5011490;28;20139;-73
2022/11/03 07:48:28;;;;;;;7.60;1.98;;;10.00;99.90;;;;;;5021867;28;20082;-73
2022/11/03 07:51:13;;;;;;;8.85;1.90;;;10.00;99.90;;;;;;5010877;28;20088;-73
2022/11/03 07:53:40;;;;;;;10.43;2.28;;;10.10;99.90;;;;;;5011819;28;20046;-73
2022/11/03 07:56:24;;;;;;;7.75;2.33;;;10.10;99.90;;;;;;5010844;28;20058;-73
2022/11/03 07:59:07;;;;;;;9.73;2.30;;;10.20;99.90;;;;;;5011333;28;20049;-73
2022/11/03 08:01:40;;;;;;;14.38;2.72;;;10.20;99.90;;;;;;5011829;28;20416;-73
2022/11/03 08:04:09;;;;;;;7.57;1.90;;;10.30;99.90;;;;;;5006487;28;20137;-74
2022/11/03 08:06:34;;;;;;;12.57;2.15;;;10.30;99.90;;;;;;5011264;28;20045;-73
2022/11/03 08:09:00;;;;;;;9.50;1.90;;;10.40;99.90;;;;;;5007927;28;20053;-73
2022/11/03 08:11:26;;;;;;;8.98;2.10;;;10.50;99.90;;;;;;5043559;28;20042;-74
2022/11/03 08:13:52;;;;;;;8.77;1.70;;;10.50;99.90;;;;;;5010909;28;20042;-74
2022/11/03 08:16:18;;;;;;;6.80;2.28;;;10.60;99.90;;;;;;5010816;28;20045;-73
2022/11/03 08:18:44;;;;;;;8.50;2.00;;;10.60;99.90;;;;;;4990644;28;20816;-74
2022/11/03 08:21:10;;;;;;;9.13;2.08;;;10.60;99.90;;;;;;5009787;28;20080;-73
2022/11/03 08:23:36;;;;;;;10.95;2.35;;;10.70;99.90;;;;;;5009998;28;20041;-73
2022/11/03 08:26:02;;;;;;;8.43;2.00;;;10.70;99.90;;;;;;5026744;28;20072;-73
2022/11/03 08:28:28;;;;;;;18.77;3.05;;;10.80;99.90;;;;;;5004113;28;20037;-73
2022/11/03 08:30:53;;;;;;;7.45;2.17;;;10.80;99.90;;;;;;5010256;28;20056;-73
2022/11/03 08:33:19;;;;;;;15.90;2.97;;;10.70;99.90;;;;;;4977107;28;20502;-73
2022/11/03 08:35:46;;;;;;;7.28;2.00;;;10.70;99.90;;;;;;5014205;28;20779;-73
2022/11/03 08:38:12;;;;;;;9.95;2.05;;;10.80;99.90;;;;;;4993299;28;20705;-73
2022/11/03 08:40:38;;;;;;;9.20;2.05;;;10.80;99.90;;;;;;5010077;28;20078;-72
2022/11/03 08:43:05;;;;;;;8.73;2.20;;;10.90;99.90;;;;;;5010345;28;20133;-74
2022/11/03 08:45:30;;;;;;;8.35;1.92;;;10.90;99.90;;;;;;4976882;28;20045;-74
2022/11/03 08:47:59;;;;;;;9.00;2.30;;;10.80;99.90;;;;;;5022727;28;20049;-73
2022/11/03 08:50:25;;;;;;;;;;;10.90;99.90;;;;;;5021599;28;20042;-73
2022/11/03 08:52:50;;;;;;;9.95;1.80;;;10.80;99.90;;;;;;4991913;28;20539;-72
2022/11/03 08:55:16;;;;;;;13.35;3.80;;;10.80;99.90;;;;;;5008122;28;20059;-73
2022/11/03 08:57:42;;;;;;;10.70;2.70;;;10.80;99.90;;;;;;4994829;28;20053;-74
2022/11/03 09:00:08;;;;;;;12.75;2.58;;;10.90;99.90;;;;;;5013916;28;20140;-72
2022/11/03 09:02:34;;;;;;;13.20;2.88;;;10.90;99.90;;;;;;5013772;28;20056;-73
2022/11/03 09:05:00;;;;;;;9.90;2.08;;;10.90;99.90;;;;;;5024921;28;20045;-73
2022/11/03 09:07:26;;;;;;;8.07;1.98;;;10.90;99.90;;;;;;5010174;28;20054;-73
2022/11/03 09:09:52;;;;;;;14.50;2.03;;;11.00;99.90;;;;;;4996443;28;20046;-73
2022/11/03 09:12:17;;;;;;;8.48;1.85;;;11.00;99.90;;;;;;5007467;28;20050;-74
2022/11/03 09:14:43;;;;;;;12.93;2.80;;;11.10;99.90;;;;;;5006501;28;20172;-73
2022/11/03 09:17:09;;;;;;;10.50;2.13;;;11.10;99.90;;;;;;5009011;28;20057;-73
2022/11/03 09:19:35;;;;;;;14.80;2.70;;;11.20;99.90;;;;;;4977053;28;20048;-74
2022/11/03 09:22:01;;;;;;;12.27;3.22;;;11.30;99.90;;;;;;5024377;28;20172;-71
2022/11/03 09:24:27;;;;;;;6.78;2.25;;;11.40;99.90;;;;;;5009346;28;20050;-74
2022/11/03 09:26:53;;;;;;;9.00;2.30;;;11.50;99.90;;;;;;5004376;28;20124;-73
2022/11/03 09:29:19;;;;;;;8.60;2.00;;;11.50;99.90;;;;;;5019041;28;20829;-73
2022/11/03 09:31:45;;;;;;;6.82;1.70;;;11.70;99.90;;;;;;4992933;28;20161;-73
2022/11/03 09:34:11;;;;;;;14.05;2.45;;;11.80;99.90;;;;;;4989480;28;20053;-72
2022/11/03 09:36:37;;;;;;;9.48;2.08;;;11.90;99.90;;;;;;4975268;28;20467;-74
2022/11/03 09:39:03;;;;;;;10.40;2.58;;;12.00;99.90;;;;;;5038177;28;20136;-73
2022/11/03 09:41:30;;;;;;;9.00;1.90;;;12.00;99.90;;;;;;4992938;28;20157;-74
2022/11/03 09:43:56;;;;;;;8.52;2.28;;;12.10;99.90;;;;;;5008822;28;20049;-73
2022/11/03 09:46:22;;;;;;;13.07;3.90;;;12.20;99.90;;;;;;5008133;28;20535;-72
2022/11/03 09:48:48;;;;;;;11.45;4.32;;;12.40;99.90;;;;;;5015025;28;20105;-73
2022/11/03 09:51:18;;;;;;;12.57;3.63;;;12.50;99.90;;;;;;5010167;28;20124;-72
2022/11/03 09:53:44;;;;;;;12.15;2.70;;;12.60;99.90;;;;;;5006315;28;20116;-73
2022/11/03 09:56:10;;;;;;;12.65;3.38;;;12.70;99.90;;;;;;5008560;28;20066;-73
2022/11/03 09:58:35;;;;;;;11.20;2.45;;;12.80;99.90;;;;;;5008644;28;20065;-73
2022/11/03 10:01:01;;;;;;;8.23;2.08;;;12.90;99.90;;;;;;5008960;28;20128;-73
2022/11/03 10:03:27;;;;;;;10.30;2.28;;;12.90;99.90;;;;;;5008328;28;20617;-72
2022/11/03 10:05:53;;;;;;;8.57;2.20;;;13.00;99.90;;;;;;5008362;28;20052;-72
2022/11/03 10:08:26;;;;;;;12.45;2.33;;;13.10;99.90;;;;;;5008991;28;20038;-73
2022/11/03 10:10:52;;;;;;;8.52;2.72;;;13.20;99.90;;;;;;4992975;28;20038;-73
2022/11/03 10:13:42;;;;;;;7.05;2.00;;;13.30;99.90;;;;;;5004212;28;20050;-73
2022/11/03 10:16:09;;;;;;;12.13;2.95;;;13.40;99.90;;;;;;5008220;28;20475;-73
2022/11/03 10:18:35;;;;;;;7.25;2.38;;;13.50;99.90;;;;;;5008077;28;20053;-73
2022/11/03 10:21:05;;;;;;;7.30;2.22;;;13.70;99.90;;;;;;5008622;28;20046;-73
2022/11/03 10:23:32;;;;;;;10.50;2.10;;;13.90;99.70;;;;;;5006765;28;20064;-72
2022/11/03 10:26:18;;;;;;;8.43;2.13;;;14.10;99.50;;;;;;4987776;28;20046;-72
2022/11/03 10:29:03;;;;;;;8.40;1.98;;;14.30;99.20;;;;;;5005148;28;20042;-73
2022/11/03 10:31:39;;;;;;;10.10;2.60;;;14.60;99.20;;;;;;5001937;28;20049;-71
2022/11/03 10:34:06;;;;;;;8.80;2.15;;;14.90;97.60;;;;;;4989846;28;20053;-71
2022/11/03 10:36:32;;;;;;;13.00;2.30;;;14.90;97.40;;;;;;5005677;28;20042;-73
2022/11/03 10:39:00;;;;;;;6.70;2.10;;;15.40;97.20;;;;;;5006739;28;20056;-72
2022/11/03 10:41:34;;;;;;;7.60;2.33;;;15.90;96.20;;;;;;5007727;28;20085;-73
2022/11/03 10:44:19;;;;;;;6.65;1.92;;;16.00;96.20;;;;;;4990854;28;20358;-73
2022/11/03 10:47:24;;;;;;;8.40;1.92;;;15.90;95.60;;;;;;5006053;28;20084;-73
2022/11/03 10:49:50;;;;;;;9.82;2.22;;;15.60;95.90;;;;;;4971320;28;20137;-74
2022/11/03 10:52:23;;;;;;;8.20;2.15;;;15.90;95.20;;;;;;5007347;28;20129;-73
2022/11/03 10:54:49;;;;;;;7.50;2.40;;;15.80;94.40;;;;;;5006498;28;20123;-75
2022/11/03 10:57:15;;;;;;;8.75;2.58;;;15.90;95.20;;;;;;5007372;28;20042;-73
2022/11/03 10:59:42;;;;;;;8.90;1.83;;;15.80;94.90;;;;;;5005741;28;20067;-72
2022/11/03 11:02:17;;;;;;;6.82;1.70;;;15.60;95.30;;;;;;4990668;28;20487;-72
2022/11/03 11:04:43;;;;;;;11.10;2.20;;;15.80;95.40;;;;;;4990447;28;20431;-72
2022/11/03 11:07:25;;;;;;;5.75;2.00;;;15.90;94.90;;;;;;5009330;28;20153;-72
2022/11/03 11:09:51;;;;;;;6.72;1.73;;;15.80;95.50;;;;;;5023321;28;20903;-73
2022/11/03 11:12:21;;;;;;;11.20;2.50;;;16.10;94.50;;;;;;4995857;28;20092;-72
2022/11/03 11:14:55;;;;;;;12.20;4.18;;;16.20;94.00;;;;;;4976506;28;20058;-70
2022/11/03 11:17:36;;;;;;;7.13;1.90;;;16.10;94.60;;;;;;4995031;28;20048;-71
2022/11/03 11:20:31;;;;;;;6.75;1.75;;;15.70;94.80;;;;;;5004179;28;20045;-72
2022/11/03 11:23:25;;;;;;;7.22;1.98;;;15.80;94.70;;;;;;5009641;28;20468;-71
2022/11/03 11:26:09;;;;;;;8.73;1.92;;;15.60;95.10;;;;;;5009561;28;20046;-72
2022/11/03 11:28:36;;;;;;;7.50;2.03;;;15.50;95.40;;;;;;5027554;28;20042;-73
2022/11/03 11:31:26;;;;;;;6.25;1.83;;;15.50;95.60;;;;;;4994639;28;20471;-72
2022/11/03 11:34:20;;;;;;;9.52;2.35;;;15.40;95.60;;;;;;4993057;28;20436;-71
2022/11/03 11:36:46;;;;;;;10.40;1.90;;;15.20;95.60;;;;;;5011856;28;20168;-71
2022/11/03 11:39:40;;;;;;;7.75;1.98;;;15.10;95.80;;;;;;5008894;28;20507;-72
2022/11/03 11:42:12;;;;;;;6.72;1.90;;;15.10;96.30;;;;;;5012170;28;20472;-72
2022/11/03 11:44:53;;;;;;;7.85;2.10;;;15.10;96.40;;;;;;5008910;28;20125;-72
2022/11/03 11:47:32;;;;;;;8.25;1.95;;;15.20;96.80;;;;;;5036607;28;20049;-73
2022/11/03 11:50:10;;;;;;;7.68;1.85;;;15.50;96.30;;;;;;5003692;28;20085;-72
2022/11/03 11:52:54;;;;;;;8.30;1.85;;;15.40;96.20;;;;;;5009969;28;20046;-72
2022/11/03 11:55:48;;;;;;;10.75;2.47;;;15.20;96.40;;;;;;5022708;28;20056;-72
2022/11/03 11:58:46;;;;;;;10.50;1.88;;;15.20;96.50;;;;;;5009171;28;20499;-71
2022/11/03 12:01:35;;;;;;;7.38;2.20;;;15.00;96.70;;;;;;5002572;28;20050;-72
2022/11/03 12:04:04;;;;;;;;;;;14.90;96.80;;;;;;4993025;28;20076;-72
2022/11/03 12:06:36;;;;;;;8.35;2.50;;;14.70;96.90;;;;;;4993222;28;20360;-71
2022/11/03 12:09:06;;;;;;;10.07;2.33;;;14.60;97.20;;;;;;5009000;28;20419;-72
2022/11/03 12:11:42;;;;;;;10.15;2.10;;;14.50;97.60;;;;;;5008741;28;20042;-71
2022/11/03 12:14:30;;;;;;;7.53;2.00;;;14.40;98.00;;;;;;5001551;28;20042;-71
2022/11/03 12:16:56;;;;;;;7.88;2.03;;;14.40;98.00;;;;;;5009577;28;20189;-71
2022/11/03 12:19:44;;;;;;;8.68;2.00;;;14.30;98.40;;;;;;5007636;28;20153;-71
2022/11/03 12:22:22;;;;;;;7.55;2.50;;;14.40;98.40;;;;;;5008247;28;20468;-71
2022/11/03 12:25:02;;;;;;;9.02;2.28;;;14.50;98.10;;;;;;5007938;28;20104;-72
2022/11/03 12:27:32;;;;;;;9.52;2.22;;;14.50;97.70;;;;;;5002836;28;20173;-71
2022/11/03 12:30:12;;;;;;;5.22;1.70;;;14.70;97.80;;;;;;5023904;28;20050;-71
2022/11/03 12:32:38;;;;;;;11.55;2.10;;;14.90;97.50;;;;;;5009131;28;20053;-71
2022/11/03 12:35:05;;;;;;;4.78;1.50;;;14.80;97.30;;;;;;5009329;28;20046;-71
2022/11/03 12:37:30;;;;;;;10.70;2.53;;;14.60;97.30;;;;;;5009293;28;20483;-72
2022/11/03 12:39:56;;;;;;;7.80;2.35;;;14.70;97.70;;;;;;5007145;28;20050;-70
2022/11/03 12:42:23;;;;;;;7.32;1.92;;;14.70;97.80;;;;;;4992808;28;20363;-72
2022/11/03 12:44:50;;;;;;;11.77;2.13;;;14.60;97.70;;;;;;4993225;28;20087;-71
2022/11/03 12:47:16;;;;;;;8.68;1.80;;;14.50;97.90;;;;;;4992278;28;20048;-71
2022/11/03 12:49:42;;;;;;;8.18;1.80;;;14.50;98.00;;;;;;5009875;28;20046;-71
2022/11/03 12:52:09;;;;;;;7.47;1.90;;;14.30;98.00;;;;;;4990579;28;20046;-70
2022/11/03 12:54:35;;;;;;;5.93;2.22;;;14.30;98.30;;;;;;5025018;28;20045;-71
2022/11/03 12:57:00;;;;;;;7.53;2.10;;;14.30;98.20;;;;;;5025147;28;20107;-71
2022/11/03 12:59:27;;;;;;;6.45;1.60;;;14.20;98.00;;;;;;5006701;28;20450;-71
2022/11/03 13:01:52;;;;;;;5.47;1.98;;;14.20;98.10;;;;;;5008081;28;20045;-71
2022/11/03 13:04:20;;;;;;;9.40;2.33;;;14.10;98.30;;;;;;4992301;28;20041;-71
2022/11/03 13:06:45;;;;;;;5.10;1.80;;;14.00;98.50;;;;;;4991355;28;20129;-73
2022/11/03 13:09:11;;;;;;;7.15;1.95;;;14.00;98.30;;;;;;4975992;28;20168;-71
2022/11/03 13:14:21;;;;;;;5.43;1.90;;;13.90;98.60;;;;;;5024655;28;20042;-71
2022/11/03 13:16:47;;;;;;;10.43;2.15;;;14.00;98.40;;;;;;4991518;28;20465;-72
2022/11/03 13:19:13;;;;;;;7.05;2.40;;;14.00;98.30;;;;;;5009109;28;20057;-71
2022/11/03 13:21:38;;;;;;;7.03;1.90;;;13.90;98.30;;;;;;4987600;28;20042;-71
2022/11/03 13:24:05;;;;;;;7.45;2.70;;;13.90;98.10;;;;;;5023633;28;20100;-71